sensor_id;sensor_type;location;lat;lon;timestamp;P1;durP1;ratioP1;P2;durP2;ratioP2
4084;SDS011;2057;50.858;6.572;2022-10-01T00:00:24;9.33;;;4.17;;
4084;SDS011;2057;50.858;6.572;2022-10-01T00:02:52;6.23;;;3.80;;
4084;SDS011;2057;50.858;6.572;2022-10-01T00:05:18;8.43;;;3.70;;
4084;SDS011;2057;50.858;6.572;2022-10-01T00:07:45;4.50;;;3.77;;
4084;SDS011;2057;50.858;6.572;2022-10-01T00:10:10;6.77;;;3.70;;
4084;SDS011;2057;50.858;6.572;2022-10-01T00:12:38;3.67;;;3.37;;
4084;SDS011;2057;50.858;6.572;2022-10-01T00:15:08;5.90;;;4.03;;
4084;SDS011;2057;50.858;6.572;2022-10-01T00:17:34;3.97;;;3.23;;
4084;SDS011;2057;50.858;6.572;2022-10-01T00:20:01;6.73;;;3.23;;
4084;SDS011;2057;50.858;6.572;2022-10-01T00:22:28;3.57;;;3.27;;
4084;SDS011;2057;50.858;6.572;2022-10-01T00:24:56;5.00;;;3.33;;
4084;SDS011;2057;50.858;6.572;2022-10-01T00:27:22;15.97;;;3.77;;
4084;SDS011;2057;50.858;6.572;2022-10-01T00:29:51;6.00;;;3.87;;
4084;SDS011;2057;50.858;6.572;2022-10-01T00:32:17;6.83;;;3.33;;
4084;SDS011;2057;50.858;6.572;2022-10-01T00:34:43;4.03;;;2.70;;
4084;SDS011;2057;50.858;6.572;2022-10-01T00:37:08;3.17;;;2.87;;
4084;SDS011;2057;50.858;6.572;2022-10-01T00:39:34;3.57;;;3.20;;
4084;SDS011;2057;50.858;6.572;2022-10-01T00:42:03;8.30;;;3.60;;
4084;SDS011;2057;50.858;6.572;2022-10-01T00:44:40;5.07;;;3.80;;
4084;SDS011;2057;50.858;6.572;2022-10-01T00:47:20;5.77;;;3.57;;
4084;SDS011;2057;50.858;6.572;2022-10-01T00:50:17;5.57;;;3.73;;
4084;SDS011;2057;50.858;6.572;2022-10-01T00:52:47;4.60;;;3.50;;
4084;SDS011;2057;50.858;6.572;2022-10-01T00:55:20;12.53;;;3.50;;
4084;SDS011;2057;50.858;6.572;2022-10-01T00:57:50;4.43;;;3.23;;
4084;SDS011;2057;50.858;6.572;2022-10-01T01:00:16;5.73;;;3.40;;
4084;SDS011;2057;50.858;6.572;2022-10-01T01:02:42;8.67;;;3.63;;
4084;SDS011;2057;50.858;6.572;2022-10-01T01:05:08;4.27;;;3.47;;
4084;SDS011;2057;50.858;6.572;2022-10-01T01:07:36;3.93;;;3.33;;
4084;SDS011;2057;50.858;6.572;2022-10-01T01:10:03;5.13;;;4.10;;
4084;SDS011;2057;50.858;6.572;2022-10-01T01:12:39;4.83;;;3.90;;
4084;SDS011;2057;50.858;6.572;2022-10-01T01:17:46;5.60;;;4.20;;
4084;SDS011;2057;50.858;6.572;2022-10-01T01:23:35;5.33;;;2.73;;
4084;SDS011;2057;50.858;6.572;2022-10-01T01:28:23;8.00;;;3.40;;
4084;SDS011;2057;50.858;6.572;2022-10-01T01:30:56;5.17;;;3.20;;
4084;SDS011;2057;50.858;6.572;2022-10-01T01:33:25;4.10;;;3.07;;
4084;SDS011;2057;50.858;6.572;2022-10-01T01:36:00;4.73;;;2.67;;
4084;SDS011;2057;50.858;6.572;2022-10-01T01:38:32;7.23;;;2.87;;
4084;SDS011;2057;50.858;6.572;2022-10-01T01:41:03;6.23;;;2.83;;
4084;SDS011;2057;50.858;6.572;2022-10-01T01:43:32;3.03;;;2.53;;
4084;SDS011;2057;50.858;6.572;2022-10-01T01:46:03;3.60;;;2.77;;
4084;SDS011;2057;50.858;6.572;2022-10-01T01:48:32;3.07;;;2.80;;
4084;SDS011;2057;50.858;6.572;2022-10-01T01:53:34;3.57;;;2.30;;
4084;SDS011;2057;50.858;6.572;2022-10-01T01:55:59;3.73;;;3.07;;
4084;SDS011;2057;50.858;6.572;2022-10-01T01:58:26;2.60;;;2.40;;
4084;SDS011;2057;50.858;6.572;2022-10-01T02:00:52;3.97;;;2.67;;
4084;SDS011;2057;50.858;6.572;2022-10-01T02:03:18;2.93;;;2.73;;
4084;SDS011;2057;50.858;6.572;2022-10-01T02:05:57;4.87;;;2.20;;
4084;SDS011;2057;50.858;6.572;2022-10-01T02:08:39;2.50;;;2.30;;
4084;SDS011;2057;50.858;6.572;2022-10-01T02:16:54;3.00;;;1.70;;
4084;SDS011;2057;50.858;6.572;2022-10-01T02:22:16;6.27;;;1.80;;
4084;SDS011;2057;50.858;6.572;2022-10-01T02:24:52;2.50;;;2.30;;
4084;SDS011;2057;50.858;6.572;2022-10-01T02:27:25;1.90;;;1.80;;
4084;SDS011;2057;50.858;6.572;2022-10-01T02:29:54;1.80;;;1.50;;
4084;SDS011;2057;50.858;6.572;2022-10-01T02:32:23;1.67;;;1.43;;
4084;SDS011;2057;50.858;6.572;2022-10-01T02:34:51;1.70;;;1.50;;
4084;SDS011;2057;50.858;6.572;2022-10-01T02:37:20;3.00;;;1.70;;
4084;SDS011;2057;50.858;6.572;2022-10-01T02:39:48;1.83;;;1.20;;
4084;SDS011;2057;50.858;6.572;2022-10-01T02:42:16;4.17;;;1.70;;
4084;SDS011;2057;50.858;6.572;2022-10-01T02:44:44;4.43;;;1.40;;
4084;SDS011;2057;50.858;6.572;2022-10-01T02:47:20;2.40;;;1.43;;
4084;SDS011;2057;50.858;6.572;2022-10-01T02:50:19;1.80;;;1.30;;
4084;SDS011;2057;50.858;6.572;2022-10-01T02:52:57;1.10;;;0.90;;
4084;SDS011;2057;50.858;6.572;2022-10-01T02:55:29;1.60;;;1.50;;
4084;SDS011;2057;50.858;6.572;2022-10-01T02:57:59;2.07;;;1.10;;
4084;SDS011;2057;50.858;6.572;2022-10-01T03:00:25;4.63;;;1.70;;
4084;SDS011;2057;50.858;6.572;2022-10-01T03:02:51;1.27;;;1.10;;
4084;SDS011;2057;50.858;6.572;2022-10-01T03:05:17;3.47;;;1.37;;
4084;SDS011;2057;50.858;6.572;2022-10-01T03:07:44;0.90;;;0.80;;
4084;SDS011;2057;50.858;6.572;2022-10-01T03:10:11;3.43;;;0.80;;
4084;SDS011;2057;50.858;6.572;2022-10-01T03:12:37;2.30;;;0.90;;
4084;SDS011;2057;50.858;6.572;2022-10-01T03:15:05;1.97;;;0.90;;
4084;SDS011;2057;50.858;6.572;2022-10-01T03:17:31;1.57;;;0.90;;
4084;SDS011;2057;50.858;6.572;2022-10-01T03:19:56;2.50;;;1.00;;
4084;SDS011;2057;50.858;6.572;2022-10-01T03:22:24;1.97;;;1.20;;
4084;SDS011;2057;50.858;6.572;2022-10-01T03:24:50;4.73;;;1.60;;
4084;SDS011;2057;50.858;6.572;2022-10-01T03:27:17;2.83;;;1.20;;
4084;SDS011;2057;50.858;6.572;2022-10-01T03:29:43;1.30;;;1.20;;
4084;SDS011;2057;50.858;6.572;2022-10-01T03:32:08;14.77;;;1.10;;
4084;SDS011;2057;50.858;6.572;2022-10-01T03:34:39;3.23;;;1.00;;
4084;SDS011;2057;50.858;6.572;2022-10-01T03:37:04;1.23;;;0.90;;
4084;SDS011;2057;50.858;6.572;2022-10-01T03:39:31;0.90;;;0.90;;
4084;SDS011;2057;50.858;6.572;2022-10-01T03:41:56;0.90;;;0.80;;
4084;SDS011;2057;50.858;6.572;2022-10-01T03:44:22;2.17;;;1.07;;
4084;SDS011;2057;50.858;6.572;2022-10-01T03:46:47;2.13;;;1.03;;
4084;SDS011;2057;50.858;6.572;2022-10-01T03:49:13;0.80;;;0.80;;
4084;SDS011;2057;50.858;6.572;2022-10-01T03:51:39;0.90;;;0.90;;
4084;SDS011;2057;50.858;6.572;2022-10-01T03:54:05;0.63;;;0.63;;
4084;SDS011;2057;50.858;6.572;2022-10-01T03:56:32;0.80;;;0.70;;
4084;SDS011;2057;50.858;6.572;2022-10-01T03:59:00;0.90;;;0.90;;
4084;SDS011;2057;50.858;6.572;2022-10-01T04:01:26;3.67;;;0.97;;
4084;SDS011;2057;50.858;6.572;2022-10-01T04:03:52;0.80;;;0.80;;
4084;SDS011;2057;50.858;6.572;2022-10-01T04:06:17;3.53;;;0.80;;
4084;SDS011;2057;50.858;6.572;2022-10-01T04:08:43;2.00;;;1.10;;
4084;SDS011;2057;50.858;6.572;2022-10-01T04:11:08;4.20;;;1.13;;
4084;SDS011;2057;50.858;6.572;2022-10-01T04:13:34;7.70;;;0.80;;
4084;SDS011;2057;50.858;6.572;2022-10-01T04:16:00;0.80;;;0.70;;
4084;SDS011;2057;50.858;6.572;2022-10-01T04:18:26;5.33;;;1.77;;
4084;SDS011;2057;50.858;6.572;2022-10-01T04:20:52;0.80;;;0.80;;
4084;SDS011;2057;50.858;6.572;2022-10-01T04:23:20;1.10;;;0.80;;
4084;SDS011;2057;50.858;6.572;2022-10-01T04:25:46;2.67;;;1.07;;
4084;SDS011;2057;50.858;6.572;2022-10-01T04:28:12;5.43;;;1.00;;
4084;SDS011;2057;50.858;6.572;2022-10-01T04:30:39;0.70;;;0.70;;
4084;SDS011;2057;50.858;6.572;2022-10-01T04:33:06;1.63;;;0.80;;
4084;SDS011;2057;50.858;6.572;2022-10-01T04:35:33;0.80;;;0.80;;
4084;SDS011;2057;50.858;6.572;2022-10-01T04:38:00;2.97;;;0.67;;
4084;SDS011;2057;50.858;6.572;2022-10-01T04:40:30;0.60;;;0.60;;
4084;SDS011;2057;50.858;6.572;2022-10-01T04:42:58;0.70;;;0.70;;
4084;SDS011;2057;50.858;6.572;2022-10-01T04:45:24;0.80;;;0.60;;
4084;SDS011;2057;50.858;6.572;2022-10-01T04:47:51;0.60;;;0.60;;
4084;SDS011;2057;50.858;6.572;2022-10-01T04:50:20;1.13;;;0.90;;
4084;SDS011;2057;50.858;6.572;2022-10-01T04:52:47;1.77;;;0.97;;
4084;SDS011;2057;50.858;6.572;2022-10-01T04:55:13;0.60;;;0.60;;
4084;SDS011;2057;50.858;6.572;2022-10-01T04:57:40;0.60;;;0.60;;
4084;SDS011;2057;50.858;6.572;2022-10-01T05:00:06;0.80;;;0.80;;
4084;SDS011;2057;50.858;6.572;2022-10-01T05:02:33;1.07;;;0.70;;
4084;SDS011;2057;50.858;6.572;2022-10-01T05:05:00;0.77;;;0.77;;
4084;SDS011;2057;50.858;6.572;2022-10-01T05:07:28;0.80;;;0.80;;
4084;SDS011;2057;50.858;6.572;2022-10-01T05:09:57;0.70;;;0.70;;
4084;SDS011;2057;50.858;6.572;2022-10-01T05:12:24;1.43;;;0.70;;
4084;SDS011;2057;50.858;6.572;2022-10-01T05:14:53;0.70;;;0.70;;
4084;SDS011;2057;50.858;6.572;2022-10-01T05:17:19;0.80;;;0.80;;
4084;SDS011;2057;50.858;6.572;2022-10-01T05:19:46;0.60;;;0.60;;
4084;SDS011;2057;50.858;6.572;2022-10-01T05:22:12;0.60;;;0.60;;
4084;SDS011;2057;50.858;6.572;2022-10-01T05:24:38;0.77;;;0.70;;
4084;SDS011;2057;50.858;6.572;2022-10-01T05:27:04;0.63;;;0.63;;
4084;SDS011;2057;50.858;6.572;2022-10-01T05:29:31;5.70;;;0.70;;
4084;SDS011;2057;50.858;6.572;2022-10-01T05:31:57;0.80;;;0.70;;
4084;SDS011;2057;50.858;6.572;2022-10-01T05:34:22;1.63;;;0.70;;
4084;SDS011;2057;50.858;6.572;2022-10-01T05:36:48;1.13;;;0.80;;
4084;SDS011;2057;50.858;6.572;2022-10-01T05:39:13;3.07;;;0.67;;
4084;SDS011;2057;50.858;6.572;2022-10-01T05:41:38;3.17;;;0.60;;
4084;SDS011;2057;50.858;6.572;2022-10-01T05:44:04;0.60;;;0.60;;
4084;SDS011;2057;50.858;6.572;2022-10-01T05:46:30;0.73;;;0.67;;
4084;SDS011;2057;50.858;6.572;2022-10-01T05:48:56;0.60;;;0.60;;
4084;SDS011;2057;50.858;6.572;2022-10-01T05:51:22;1.37;;;0.80;;
4084;SDS011;2057;50.858;6.572;2022-10-01T05:53:48;0.70;;;0.70;;
4084;SDS011;2057;50.858;6.572;2022-10-01T05:56:13;2.40;;;0.60;;
4084;SDS011;2057;50.858;6.572;2022-10-01T05:58:39;0.70;;;0.70;;
4084;SDS011;2057;50.858;6.572;2022-10-01T06:01:04;0.70;;;0.70;;
4084;SDS011;2057;50.858;6.572;2022-10-01T06:03:30;0.70;;;0.70;;
4084;SDS011;2057;50.858;6.572;2022-10-01T06:05:56;0.80;;;0.80;;
4084;SDS011;2057;50.858;6.572;2022-10-01T06:08:21;0.70;;;0.70;;
4084;SDS011;2057;50.858;6.572;2022-10-01T06:10:47;0.90;;;0.70;;
4084;SDS011;2057;50.858;6.572;2022-10-01T06:13:13;0.70;;;0.70;;
4084;SDS011;2057;50.858;6.572;2022-10-01T06:15:41;0.70;;;0.70;;
4084;SDS011;2057;50.858;6.572;2022-10-01T06:18:08;0.70;;;0.70;;
4084;SDS011;2057;50.858;6.572;2022-10-01T06:20:35;0.60;;;0.60;;
4084;SDS011;2057;50.858;6.572;2022-10-01T06:23:02;1.30;;;0.80;;
4084;SDS011;2057;50.858;6.572;2022-10-01T06:25:30;0.60;;;0.60;;
4084;SDS011;2057;50.858;6.572;2022-10-01T06:27:56;0.70;;;0.70;;
4084;SDS011;2057;50.858;6.572;2022-10-01T06:30:27;1.73;;;1.63;;
4084;SDS011;2057;50.858;6.572;2022-10-01T06:32:59;1.57;;;1.33;;
4084;SDS011;2057;50.858;6.572;2022-10-01T06:35:43;1.17;;;0.80;;
4084;SDS011;2057;50.858;6.572;2022-10-01T06:38:11;1.43;;;0.80;;
4084;SDS011;2057;50.858;6.572;2022-10-01T06:40:37;0.70;;;0.70;;
4084;SDS011;2057;50.858;6.572;2022-10-01T06:43:06;0.93;;;0.90;;
4084;SDS011;2057;50.858;6.572;2022-10-01T06:45:35;0.70;;;0.70;;
4084;SDS011;2057;50.858;6.572;2022-10-01T06:48:06;0.80;;;0.80;;
4084;SDS011;2057;50.858;6.572;2022-10-01T06:50:33;0.70;;;0.70;;
4084;SDS011;2057;50.858;6.572;2022-10-01T06:52:59;1.20;;;0.70;;
4084;SDS011;2057;50.858;6.572;2022-10-01T06:55:28;0.70;;;0.70;;
4084;SDS011;2057;50.858;6.572;2022-10-01T06:57:59;0.80;;;0.70;;
4084;SDS011;2057;50.858;6.572;2022-10-01T07:00:29;0.90;;;0.60;;
4084;SDS011;2057;50.858;6.572;2022-10-01T07:02:56;0.60;;;0.60;;
4084;SDS011;2057;50.858;6.572;2022-10-01T07:05:22;4.00;;;0.70;;
4084;SDS011;2057;50.858;6.572;2022-10-01T07:07:49;1.87;;;0.80;;
4084;SDS011;2057;50.858;6.572;2022-10-01T07:10:16;1.57;;;0.70;;
4084;SDS011;2057;50.858;6.572;2022-10-01T07:12:46;1.83;;;1.10;;
4084;SDS011;2057;50.858;6.572;2022-10-01T07:15:16;0.93;;;0.73;;
4084;SDS011;2057;50.858;6.572;2022-10-01T07:17:47;1.20;;;0.77;;
4084;SDS011;2057;50.858;6.572;2022-10-01T07:20:14;1.13;;;0.70;;
4084;SDS011;2057;50.858;6.572;2022-10-01T07:22:42;1.27;;;0.90;;
4084;SDS011;2057;50.858;6.572;2022-10-01T07:25:11;0.93;;;0.70;;
4084;SDS011;2057;50.858;6.572;2022-10-01T07:27:38;3.43;;;0.70;;
4084;SDS011;2057;50.858;6.572;2022-10-01T07:30:06;1.20;;;0.70;;
4084;SDS011;2057;50.858;6.572;2022-10-01T07:32:32;1.57;;;0.70;;
4084;SDS011;2057;50.858;6.572;2022-10-01T07:35:00;2.10;;;0.90;;
4084;SDS011;2057;50.858;6.572;2022-10-01T07:37:26;2.57;;;0.93;;
4084;SDS011;2057;50.858;6.572;2022-10-01T07:39:52;0.70;;;0.70;;
4084;SDS011;2057;50.858;6.572;2022-10-01T07:42:17;3.23;;;1.10;;
4084;SDS011;2057;50.858;6.572;2022-10-01T07:44:43;1.87;;;0.70;;
4084;SDS011;2057;50.858;6.572;2022-10-01T07:47:08;2.43;;;0.80;;
4084;SDS011;2057;50.858;6.572;2022-10-01T07:49:34;4.90;;;0.70;;
4084;SDS011;2057;50.858;6.572;2022-10-01T07:51:59;2.30;;;0.70;;
4084;SDS011;2057;50.858;6.572;2022-10-01T07:54:24;0.97;;;0.70;;
4084;SDS011;2057;50.858;6.572;2022-10-01T07:56:50;1.60;;;0.80;;
4084;SDS011;2057;50.858;6.572;2022-10-01T07:59:20;1.73;;;0.77;;
4084;SDS011;2057;50.858;6.572;2022-10-01T08:01:49;4.67;;;0.90;;
4084;SDS011;2057;50.858;6.572;2022-10-01T08:04:15;0.70;;;0.70;;
4084;SDS011;2057;50.858;6.572;2022-10-01T08:06:59;0.90;;;0.80;;
4084;SDS011;2057;50.858;6.572;2022-10-01T08:09:25;0.80;;;0.80;;
4084;SDS011;2057;50.858;6.572;2022-10-01T08:11:51;2.60;;;1.10;;
4084;SDS011;2057;50.858;6.572;2022-10-01T08:14:16;0.90;;;0.90;;
4084;SDS011;2057;50.858;6.572;2022-10-01T08:16:43;1.60;;;1.10;;
4084;SDS011;2057;50.858;6.572;2022-10-01T08:19:08;2.70;;;1.53;;
4084;SDS011;2057;50.858;6.572;2022-10-01T08:21:34;5.00;;;1.40;;
4084;SDS011;2057;50.858;6.572;2022-10-01T08:24:02;3.87;;;1.10;;
4084;SDS011;2057;50.858;6.572;2022-10-01T08:26:28;1.43;;;1.07;;
4084;SDS011;2057;50.858;6.572;2022-10-01T08:28:53;1.97;;;1.20;;
4084;SDS011;2057;50.858;6.572;2022-10-01T08:31:19;5.43;;;1.40;;
4084;SDS011;2057;50.858;6.572;2022-10-01T08:33:44;5.93;;;1.27;;
4084;SDS011;2057;50.858;6.572;2022-10-01T08:36:09;2.27;;;1.43;;
4084;SDS011;2057;50.858;6.572;2022-10-01T08:38:35;6.60;;;1.20;;
4084;SDS011;2057;50.858;6.572;2022-10-01T08:41:06;1.00;;;0.87;;
4084;SDS011;2057;50.858;6.572;2022-10-01T08:43:47;1.47;;;1.00;;
4084;SDS011;2057;50.858;6.572;2022-10-01T08:46:16;5.17;;;1.57;;
4084;SDS011;2057;50.858;6.572;2022-10-01T08:53:54;3.93;;;1.20;;
4084;SDS011;2057;50.858;6.572;2022-10-01T08:56:42;3.90;;;1.30;;
4084;SDS011;2057;50.858;6.572;2022-10-01T09:04:42;4.27;;;1.03;;
4084;SDS011;2057;50.858;6.572;2022-10-01T09:10:37;13.63;;;1.50;;
4084;SDS011;2057;50.858;6.572;2022-10-01T09:13:07;2.90;;;1.20;;
4084;SDS011;2057;50.858;6.572;2022-10-01T09:24:33;4.23;;;2.13;;
4084;SDS011;2057;50.858;6.572;2022-10-01T09:27:10;4.00;;;1.70;;
4084;SDS011;2057;50.858;6.572;2022-10-01T09:29:46;3.23;;;1.60;;
4084;SDS011;2057;50.858;6.572;2022-10-01T09:32:36;6.50;;;2.23;;
4084;SDS011;2057;50.858;6.572;2022-10-01T09:35:14;10.87;;;2.70;;
4084;SDS011;2057;50.858;6.572;2022-10-01T09:37:50;4.03;;;2.40;;
4084;SDS011;2057;50.858;6.572;2022-10-01T09:43:17;10.67;;;2.77;;
4084;SDS011;2057;50.858;6.572;2022-10-01T09:45:49;6.00;;;2.33;;
4084;SDS011;2057;50.858;6.572;2022-10-01T09:51:26;15.73;;;3.20;;
4084;SDS011;2057;50.858;6.572;2022-10-01T09:54:00;9.00;;;3.03;;
4084;SDS011;2057;50.858;6.572;2022-10-01T09:56:36;14.13;;;3.00;;
4084;SDS011;2057;50.858;6.572;2022-10-01T09:59:07;17.87;;;3.17;;
4084;SDS011;2057;50.858;6.572;2022-10-01T10:04:17;10.50;;;3.20;;
4084;SDS011;2057;50.858;6.572;2022-10-01T10:06:44;9.20;;;2.80;;
4084;SDS011;2057;50.858;6.572;2022-10-01T10:09:15;7.50;;;2.73;;
4084;SDS011;2057;50.858;6.572;2022-10-01T10:11:42;9.17;;;2.40;;
4084;SDS011;2057;50.858;6.572;2022-10-01T10:14:16;14.40;;;3.40;;
4084;SDS011;2057;50.858;6.572;2022-10-01T10:16:45;11.87;;;2.27;;
4084;SDS011;2057;50.858;6.572;2022-10-01T10:19:14;11.37;;;2.93;;
4084;SDS011;2057;50.858;6.572;2022-10-01T10:21:50;7.40;;;2.70;;
4084;SDS011;2057;50.858;6.572;2022-10-01T10:24:22;17.07;;;3.57;;
4084;SDS011;2057;50.858;6.572;2022-10-01T10:26:54;14.27;;;3.20;;
4084;SDS011;2057;50.858;6.572;2022-10-01T10:29:26;17.73;;;2.90;;
4084;SDS011;2057;50.858;6.572;2022-10-01T10:31:55;7.13;;;3.20;;
4084;SDS011;2057;50.858;6.572;2022-10-01T10:34:36;14.30;;;3.80;;
4084;SDS011;2057;50.858;6.572;2022-10-01T10:37:10;15.10;;;3.60;;
4084;SDS011;2057;50.858;6.572;2022-10-01T10:39:39;12.50;;;3.10;;
4084;SDS011;2057;50.858;6.572;2022-10-01T10:42:12;17.47;;;3.43;;
4084;SDS011;2057;50.858;6.572;2022-10-01T10:44:40;13.33;;;3.67;;
4084;SDS011;2057;50.858;6.572;2022-10-01T10:47:11;14.07;;;4.13;;
4084;SDS011;2057;50.858;6.572;2022-10-01T10:52:17;16.30;;;3.80;;
4084;SDS011;2057;50.858;6.572;2022-10-01T10:54:48;11.40;;;3.43;;
4084;SDS011;2057;50.858;6.572;2022-10-01T10:57:25;13.17;;;3.03;;
4084;SDS011;2057;50.858;6.572;2022-10-01T11:00:09;10.03;;;2.90;;
4084;SDS011;2057;50.858;6.572;2022-10-01T11:02:40;12.23;;;3.20;;
4084;SDS011;2057;50.858;6.572;2022-10-01T11:05:18;21.40;;;3.00;;
4084;SDS011;2057;50.858;6.572;2022-10-01T11:07:45;16.93;;;4.10;;
4084;SDS011;2057;50.858;6.572;2022-10-01T11:12:54;11.73;;;2.93;;
4084;SDS011;2057;50.858;6.572;2022-10-01T11:15:29;18.30;;;3.40;;
4084;SDS011;2057;50.858;6.572;2022-10-01T11:26:23;11.23;;;2.83;;
4084;SDS011;2057;50.858;6.572;2022-10-01T11:28:59;8.60;;;2.30;;
4084;SDS011;2057;50.858;6.572;2022-10-01T11:39:57;17.30;;;3.30;;
4084;SDS011;2057;50.858;6.572;2022-10-01T11:42:31;10.80;;;2.87;;
4084;SDS011;2057;50.858;6.572;2022-10-01T11:45:05;12.77;;;3.23;;
4084;SDS011;2057;50.858;6.572;2022-10-01T11:47:51;15.43;;;3.20;;
4084;SDS011;2057;50.858;6.572;2022-10-01T11:50:20;12.50;;;3.27;;
4084;SDS011;2057;50.858;6.572;2022-10-01T11:52:55;13.03;;;4.03;;
4084;SDS011;2057;50.858;6.572;2022-10-01T11:55:26;23.57;;;11.03;;
4084;SDS011;2057;50.858;6.572;2022-10-01T12:01:30;15.13;;;3.50;;
4084;SDS011;2057;50.858;6.572;2022-10-01T12:04:22;19.97;;;6.60;;
4084;SDS011;2057;50.858;6.572;2022-10-01T12:09:25;11.73;;;4.17;;
4084;SDS011;2057;50.858;6.572;2022-10-01T12:12:02;15.53;;;3.97;;
4084;SDS011;2057;50.858;6.572;2022-10-01T12:14:36;10.50;;;3.20;;
4084;SDS011;2057;50.858;6.572;2022-10-01T12:17:27;18.03;;;3.47;;
4084;SDS011;2057;50.858;6.572;2022-10-01T12:20:00;15.60;;;3.13;;
4084;SDS011;2057;50.858;6.572;2022-10-01T12:22:29;12.33;;;3.20;;
4084;SDS011;2057;50.858;6.572;2022-10-01T12:24:57;10.90;;;3.53;;
4084;SDS011;2057;50.858;6.572;2022-10-01T12:27:41;17.10;;;3.47;;
4084;SDS011;2057;50.858;6.572;2022-10-01T12:30:41;21.37;;;3.40;;
4084;SDS011;2057;50.858;6.572;2022-10-01T12:39:22;10.83;;;3.40;;
4084;SDS011;2057;50.858;6.572;2022-10-01T12:41:55;12.90;;;3.37;;
4084;SDS011;2057;50.858;6.572;2022-10-01T12:50:20;17.70;;;3.20;;
4084;SDS011;2057;50.858;6.572;2022-10-01T12:52:56;12.43;;;2.67;;
4084;SDS011;2057;50.858;6.572;2022-10-01T13:14:52;13.40;;;2.90;;
4084;SDS011;2057;50.858;6.572;2022-10-01T13:17:32;14.67;;;3.67;;
4084;SDS011;2057;50.858;6.572;2022-10-01T13:20:07;17.27;;;2.50;;
4084;SDS011;2057;50.858;6.572;2022-10-01T13:22:44;10.83;;;2.83;;
4084;SDS011;2057;50.858;6.572;2022-10-01T13:28:11;8.43;;;2.33;;
4084;SDS011;2057;50.858;6.572;2022-10-01T13:30:53;13.33;;;2.90;;
4084;SDS011;2057;50.858;6.572;2022-10-01T13:33:24;14.43;;;3.13;;
4084;SDS011;2057;50.858;6.572;2022-10-01T13:35:59;11.40;;;3.63;;
4084;SDS011;2057;50.858;6.572;2022-10-01T13:38:38;12.23;;;3.30;;
4084;SDS011;2057;50.858;6.572;2022-10-01T13:41:15;9.67;;;3.57;;
4084;SDS011;2057;50.858;6.572;2022-10-01T13:43:48;12.23;;;3.20;;
4084;SDS011;2057;50.858;6.572;2022-10-01T13:46:20;16.23;;;4.03;;
4084;SDS011;2057;50.858;6.572;2022-10-01T13:48:49;7.40;;;3.17;;
4084;SDS011;2057;50.858;6.572;2022-10-01T13:51:15;14.27;;;3.40;;
4084;SDS011;2057;50.858;6.572;2022-10-01T13:56:07;10.40;;;2.93;;
4084;SDS011;2057;50.858;6.572;2022-10-01T14:01:05;13.40;;;3.30;;
4084;SDS011;2057;50.858;6.572;2022-10-01T14:04:13;13.57;;;2.60;;
4084;SDS011;2057;50.858;6.572;2022-10-01T14:06:44;9.17;;;2.70;;
4084;SDS011;2057;50.858;6.572;2022-10-01T14:09:16;13.73;;;2.73;;
4084;SDS011;2057;50.858;6.572;2022-10-01T14:11:47;9.57;;;2.90;;
4084;SDS011;2057;50.858;6.572;2022-10-01T14:14:35;15.63;;;3.37;;
4084;SDS011;2057;50.858;6.572;2022-10-01T14:17:24;9.40;;;2.83;;
4084;SDS011;2057;50.858;6.572;2022-10-01T14:19:53;10.63;;;2.83;;
4084;SDS011;2057;50.858;6.572;2022-10-01T14:36:24;13.73;;;3.03;;
4084;SDS011;2057;50.858;6.572;2022-10-01T14:39:03;16.37;;;4.03;;
4084;SDS011;2057;50.858;6.572;2022-10-01T14:41:36;9.03;;;2.90;;
4084;SDS011;2057;50.858;6.572;2022-10-01T14:44:13;9.03;;;2.23;;
4084;SDS011;2057;50.858;6.572;2022-10-01T14:46:50;11.10;;;3.07;;
4084;SDS011;2057;50.858;6.572;2022-10-01T14:49:23;11.43;;;2.43;;
4084;SDS011;2057;50.858;6.572;2022-10-01T14:51:49;8.97;;;2.63;;
4084;SDS011;2057;50.858;6.572;2022-10-01T14:54:17;8.43;;;2.57;;
4084;SDS011;2057;50.858;6.572;2022-10-01T14:56:44;7.20;;;2.27;;
4084;SDS011;2057;50.858;6.572;2022-10-01T14:59:13;15.50;;;3.27;;
4084;SDS011;2057;50.858;6.572;2022-10-01T15:01:59;19.53;;;3.83;;
4084;SDS011;2057;50.858;6.572;2022-10-01T15:04:26;10.43;;;3.40;;
4084;SDS011;2057;50.858;6.572;2022-10-01T15:06:52;16.80;;;3.60;;
4084;SDS011;2057;50.858;6.572;2022-10-01T15:09:17;12.73;;;3.30;;
4084;SDS011;2057;50.858;6.572;2022-10-01T15:11:45;17.90;;;3.10;;
4084;SDS011;2057;50.858;6.572;2022-10-01T15:14:14;7.40;;;2.60;;
4084;SDS011;2057;50.858;6.572;2022-10-01T15:16:42;14.60;;;2.70;;
4084;SDS011;2057;50.858;6.572;2022-10-01T15:19:10;19.00;;;2.83;;
4084;SDS011;2057;50.858;6.572;2022-10-01T15:21:44;19.70;;;3.90;;
4084;SDS011;2057;50.858;6.572;2022-10-01T15:24:19;16.80;;;3.30;;
4084;SDS011;2057;50.858;6.572;2022-10-01T15:26:46;12.87;;;2.93;;
4084;SDS011;2057;50.858;6.572;2022-10-01T15:29:13;10.90;;;2.30;;
4084;SDS011;2057;50.858;6.572;2022-10-01T15:31:40;13.57;;;3.30;;
4084;SDS011;2057;50.858;6.572;2022-10-01T15:34:10;10.80;;;2.87;;
4084;SDS011;2057;50.858;6.572;2022-10-01T15:36:39;8.33;;;2.50;;
4084;SDS011;2057;50.858;6.572;2022-10-01T15:41:50;9.87;;;2.47;;
4084;SDS011;2057;50.858;6.572;2022-10-01T15:52:38;13.73;;;3.47;;
4084;SDS011;2057;50.858;6.572;2022-10-01T15:56:06;16.40;;;3.30;;
4084;SDS011;2057;50.858;6.572;2022-10-01T15:58:13;14.90;;;3.23;;
4084;SDS011;2057;50.858;6.572;2022-10-01T16:03:33;24.40;;;3.50;;
4084;SDS011;2057;50.858;6.572;2022-10-01T16:05:58;9.10;;;2.57;;
4084;SDS011;2057;50.858;6.572;2022-10-01T16:08:29;9.80;;;2.63;;
4084;SDS011;2057;50.858;6.572;2022-10-01T16:13:47;13.00;;;2.47;;
4084;SDS011;2057;50.858;6.572;2022-10-01T16:19:29;11.83;;;2.83;;
4084;SDS011;2057;50.858;6.572;2022-10-01T16:21:43;16.20;;;3.33;;
4084;SDS011;2057;50.858;6.572;2022-10-01T16:24:40;13.03;;;2.67;;
4084;SDS011;2057;50.858;6.572;2022-10-01T16:27:07;13.00;;;3.43;;
4084;SDS011;2057;50.858;6.572;2022-10-01T16:29:39;7.40;;;2.60;;
4084;SDS011;2057;50.858;6.572;2022-10-01T16:32:04;15.17;;;3.27;;
4084;SDS011;2057;50.858;6.572;2022-10-01T16:34:30;12.20;;;2.80;;
4084;SDS011;2057;50.858;6.572;2022-10-01T16:36:55;13.27;;;3.10;;
4084;SDS011;2057;50.858;6.572;2022-10-01T16:39:21;12.50;;;2.83;;
4084;SDS011;2057;50.858;6.572;2022-10-01T16:41:48;10.77;;;2.80;;
4084;SDS011;2057;50.858;6.572;2022-10-01T16:44:14;26.60;;;3.47;;
4084;SDS011;2057;50.858;6.572;2022-10-01T16:46:40;20.27;;;3.93;;
4084;SDS011;2057;50.858;6.572;2022-10-01T16:49:12;20.43;;;3.30;;
4084;SDS011;2057;50.858;6.572;2022-10-01T16:51:39;18.20;;;3.20;;
4084;SDS011;2057;50.858;6.572;2022-10-01T16:54:18;13.43;;;3.13;;
4084;SDS011;2057;50.858;6.572;2022-10-01T16:56:49;16.07;;;2.90;;
4084;SDS011;2057;50.858;6.572;2022-10-01T16:59:16;16.73;;;2.60;;
4084;SDS011;2057;50.858;6.572;2022-10-01T17:01:43;11.80;;;2.93;;
4084;SDS011;2057;50.858;6.572;2022-10-01T17:04:11;14.50;;;4.87;;
4084;SDS011;2057;50.858;6.572;2022-10-01T17:06:38;22.40;;;5.90;;
4084;SDS011;2057;50.858;6.572;2022-10-01T17:09:04;29.10;;;5.00;;
4084;SDS011;2057;50.858;6.572;2022-10-01T17:11:29;17.10;;;3.60;;
4084;SDS011;2057;50.858;6.572;2022-10-01T17:13:55;20.90;;;3.70;;
4084;SDS011;2057;50.858;6.572;2022-10-01T17:16:20;22.40;;;7.30;;
4084;SDS011;2057;50.858;6.572;2022-10-01T17:18:45;27.83;;;4.10;;
4084;SDS011;2057;50.858;6.572;2022-10-01T17:21:11;17.73;;;3.07;;
4084;SDS011;2057;50.858;6.572;2022-10-01T17:23:36;19.80;;;3.23;;
4084;SDS011;2057;50.858;6.572;2022-10-01T17:26:05;11.37;;;3.10;;
4084;SDS011;2057;50.858;6.572;2022-10-01T17:28:33;13.60;;;3.90;;
4084;SDS011;2057;50.858;6.572;2022-10-01T17:30:59;16.70;;;5.60;;
4084;SDS011;2057;50.858;6.572;2022-10-01T17:33:24;18.20;;;5.70;;
4084;SDS011;2057;50.858;6.572;2022-10-01T17:35:51;15.40;;;5.20;;
4084;SDS011;2057;50.858;6.572;2022-10-01T17:38:18;12.60;;;4.90;;
4084;SDS011;2057;50.858;6.572;2022-10-01T17:40:46;13.00;;;4.50;;
4084;SDS011;2057;50.858;6.572;2022-10-01T17:43:13;13.60;;;4.10;;
4084;SDS011;2057;50.858;6.572;2022-10-01T17:45:39;15.10;;;3.90;;
4084;SDS011;2057;50.858;6.572;2022-10-01T17:48:07;10.90;;;4.70;;
4084;SDS011;2057;50.858;6.572;2022-10-01T17:50:33;23.20;;;5.83;;
4084;SDS011;2057;50.858;6.572;2022-10-01T17:52:59;10.53;;;4.07;;
4084;SDS011;2057;50.858;6.572;2022-10-01T17:55:25;18.90;;;3.00;;
4084;SDS011;2057;50.858;6.572;2022-10-01T17:57:51;18.40;;;3.07;;